sensor_id;sensor_type;location;lat;lon;timestamp;pressure;altitude;pressure_sealevel;temperature;humidity
12666;BME280;58531;59.050;17.416;2023-04-16T00:01:55;101949.47;;;0.29;80.68
12666;BME280;58531;59.050;17.416;2023-04-16T00:04:22;101952.00;;;0.26;80.88
12666;BME280;58531;59.050;17.416;2023-04-16T00:06:50;101946.84;;;0.29;80.71
12666;BME280;58531;59.050;17.416;2023-04-16T00:09:17;101942.94;;;0.23;80.79
12666;BME280;58531;59.050;17.416;2023-04-16T00:11:44;101945.03;;;0.18;80.86
12666;BME280;58531;59.050;17.416;2023-04-16T00:14:11;101943.19;;;0.18;80.69
12666;BME280;58531;59.050;17.416;2023-04-16T00:16:37;101935.31;;;0.18;80.58
12666;BME280;58531;59.050;17.416;2023-04-16T00:19:04;101938.59;;;0.15;80.73
12666;BME280;58531;59.050;17.416;2023-04-16T00:21:31;101937.50;;;0.16;80.88
12666;BME280;58531;59.050;17.416;2023-04-16T00:24:00;101932.47;;;0.11;81.17
12666;BME280;58531;59.050;17.416;2023-04-16T00:26:27;101935.09;;;0.11;80.86
12666;BME280;58531;59.050;17.416;2023-04-16T00:28:53;101932.91;;;0.13;80.71
12666;BME280;58531;59.050;17.416;2023-04-16T00:31:26;101927.66;;;0.13;80.62
12666;BME280;58531;59.050;17.416;2023-04-16T00:33:53;101924.13;;;0.21;80.14
12666;BME280;58531;59.050;17.416;2023-04-16T00:36:20;101928.72;;;0.24;80.16
12666;BME280;58531;59.050;17.416;2023-04-16T00:38:47;101924.00;;;0.18;80.17
12666;BME280;58531;59.050;17.416;2023-04-16T00:41:15;101927.00;;;0.16;80.21
12666;BME280;58531;59.050;17.416;2023-04-16T00:43:42;101928.09;;;0.15;80.52
12666;BME280;58531;59.050;17.416;2023-04-16T00:46:09;101917.34;;;0.20;80.00
12666;BME280;58531;59.050;17.416;2023-04-16T00:48:38;101925.47;;;0.15;80.37
12666;BME280;58531;59.050;17.416;2023-04-16T00:51:07;101918.34;;;0.16;80.16
12666;BME280;58531;59.050;17.416;2023-04-16T00:53:34;101912.97;;;0.24;79.72
12666;BME280;58531;59.050;17.416;2023-04-16T00:56:02;101919.97;;;0.20;80.36
12666;BME280;58531;59.050;17.416;2023-04-16T00:58:31;101921.63;;;0.13;80.50
12666;BME280;58531;59.050;17.416;2023-04-16T01:00:58;101929.94;;;0.15;80.69
12666;BME280;58531;59.050;17.416;2023-04-16T01:03:31;101921.19;;;0.11;80.87
12666;BME280;58531;59.050;17.416;2023-04-16T01:06:00;101916.16;;;0.06;81.43
12666;BME280;58531;59.050;17.416;2023-04-16T01:08:27;101914.63;;;0.05;81.45
12666;BME280;58531;59.050;17.416;2023-04-16T01:10:54;101912.59;;;-0.02;81.97
12666;BME280;58531;59.050;17.416;2023-04-16T01:13:21;101908.50;;;0.01;82.07
12666;BME280;58531;59.050;17.416;2023-04-16T01:15:49;101913.88;;;0.04;81.98
12666;BME280;58531;59.050;17.416;2023-04-16T01:18:17;101913.09;;;0.04;81.96
12666;BME280;58531;59.050;17.416;2023-04-16T01:20:46;101905.47;;;-0.01;82.41
12666;BME280;58531;59.050;17.416;2023-04-16T01:23:13;101900.78;;;-0.07;82.79
12666;BME280;58531;59.050;17.416;2023-04-16T01:25:40;101903.84;;;-0.05;83.31
12666;BME280;58531;59.050;17.416;2023-04-16T01:28:07;101901.66;;;-0.03;82.96
12666;BME280;58531;59.050;17.416;2023-04-16T01:30:34;101902.31;;;-0.06;83.34
12666;BME280;58531;59.050;17.416;2023-04-16T01:33:01;101902.31;;;-0.06;83.73
12666;BME280;58531;59.050;17.416;2023-04-16T01:35:28;101894.78;;;-0.08;83.76
12666;BME280;58531;59.050;17.416;2023-04-16T01:37:56;101899.25;;;-0.08;84.15
12666;BME280;58531;59.050;17.416;2023-04-16T01:40:23;101896.19;;;-0.10;84.52
12666;BME280;58531;59.050;17.416;2023-04-16T01:42:50;101892.38;;;-0.13;84.76
12666;BME280;58531;59.050;17.416;2023-04-16T01:45:17;101895.53;;;-0.19;85.21
12666;BME280;58531;59.050;17.416;2023-04-16T01:47:44;101901.69;;;-0.27;85.63
12666;BME280;58531;59.050;17.416;2023-04-16T01:50:11;101897.56;;;-0.28;86.38
12666;BME280;58531;59.050;17.416;2023-04-16T01:52:38;101892.75;;;-0.38;86.80
12666;BME280;58531;59.050;17.416;2023-04-16T01:55:07;101899.75;;;-0.42;87.58
12666;BME280;58531;59.050;17.416;2023-04-16T01:57:34;101896.56;;;-0.48;88.23
12666;BME280;58531;59.050;17.416;2023-04-16T02:00:01;101896.03;;;-0.53;88.68
12666;BME280;58531;59.050;17.416;2023-04-16T02:02:28;101898.88;;;-0.58;89.80
12666;BME280;58531;59.050;17.416;2023-04-16T02:04:55;101890.56;;;-0.60;90.21
12666;BME280;58531;59.050;17.416;2023-04-16T02:07:23;101887.84;;;-0.64;90.64
12666;BME280;58531;59.050;17.416;2023-04-16T02:09:50;101885.88;;;-0.67;91.44
12666;BME280;58531;59.050;17.416;2023-04-16T02:12:18;101888.81;;;-0.68;91.97
12666;BME280;58531;59.050;17.416;2023-04-16T02:14:45;101886.31;;;-0.77;92.28
12666;BME280;58531;59.050;17.416;2023-04-16T02:17:12;101892.00;;;-0.75;92.98
12666;BME280;58531;59.050;17.416;2023-04-16T02:19:40;101890.81;;;-0.77;93.42
12666;BME280;58531;59.050;17.416;2023-04-16T02:22:06;101895.16;;;-0.81;93.81
12666;BME280;58531;59.050;17.416;2023-04-16T02:24:33;101894.28;;;-0.85;94.92
12666;BME280;58531;59.050;17.416;2023-04-16T02:27:00;101898.75;;;-0.86;95.24
12666;BME280;58531;59.050;17.416;2023-04-16T02:29:29;101896.78;;;-0.89;96.04
12666;BME280;58531;59.050;17.416;2023-04-16T02:31:56;101898.22;;;-0.91;96.47
12666;BME280;58531;59.050;17.416;2023-04-16T02:34:24;101901.47;;;-0.94;96.92
12666;BME280;58531;59.050;17.416;2023-04-16T02:36:51;101898.41;;;-0.96;97.61
12666;BME280;58531;59.050;17.416;2023-04-16T02:39:18;101897.97;;;-0.98;98.04
12666;BME280;58531;59.050;17.416;2023-04-16T02:41:45;101894.81;;;-1.04;98.74
12666;BME280;58531;59.050;17.416;2023-04-16T02:44:12;101895.47;;;-1.07;99.30
12666;BME280;58531;59.050;17.416;2023-04-16T02:46:40;101892.25;;;-1.12;100.00
12666;BME280;58531;59.050;17.416;2023-04-16T02:49:07;101894.38;;;-1.06;100.00
12666;BME280;58531;59.050;17.416;2023-04-16T02:51:34;101898.53;;;-1.05;100.00
12666;BME280;58531;59.050;17.416;2023-04-16T02:54:01;101881.38;;;-1.02;100.00
12666;BME280;58531;59.050;17.416;2023-04-16T02:56:28;101882.91;;;-1.01;100.00
12666;BME280;58531;59.050;17.416;2023-04-16T02:58:55;101889.34;;;-0.99;100.00
12666;BME280;58531;59.050;17.416;2023-04-16T03:01:22;101882.25;;;-0.98;100.00
12666;BME280;58531;59.050;17.416;2023-04-16T03:03:50;101882.25;;;-0.98;100.00
12666;BME280;58531;59.050;17.416;2023-04-16T03:06:17;101896.00;;;-1.01;100.00
12666;BME280;58531;59.050;17.416;2023-04-16T03:08:44;101888.78;;;-1.04;100.00
12666;BME280;58531;59.050;17.416;2023-04-16T03:11:11;101883.25;;;-1.03;100.00
12666;BME280;58531;59.050;17.416;2023-04-16T03:13:38;101884.97;;;-1.07;100.00
12666;BME280;58531;59.050;17.416;2023-04-16T03:16:05;101888.34;;;-1.06;100.00
12666;BME280;58531;59.050;17.416;2023-04-16T03:18:32;101890.97;;;-1.06;100.00
12666;BME280;58531;59.050;17.416;2023-04-16T03:21:01;101891.84;;;-1.02;100.00
12666;BME280;58531;59.050;17.416;2023-04-16T03:23:28;101893.59;;;-1.06;100.00
12666;BME280;58531;59.050;17.416;2023-04-16T03:25:55;101889.44;;;-1.07;100.00
12666;BME280;58531;59.050;17.416;2023-04-16T03:28:22;101886.59;;;-1.14;100.00
12666;BME280;58531;59.050;17.416;2023-04-16T03:30:49;101890.72;;;-1.13;100.00
12666;BME280;58531;59.050;17.416;2023-04-16T03:33:17;101896.41;;;-1.11;100.00
12666;BME280;58531;59.050;17.416;2023-04-16T03:35:44;101908.34;;;-1.14;100.00
12666;BME280;58531;59.050;17.416;2023-04-16T03:38:12;101895.97;;;-1.13;100.00
12666;BME280;58531;59.050;17.416;2023-04-16T03:40:39;101901.56;;;-1.15;100.00
12666;BME280;58531;59.050;17.416;2023-04-16T03:43:06;101904.03;;;-1.18;100.00
12666;BME280;58531;59.050;17.416;2023-04-16T03:45:32;101898.28;;;-1.12;100.00
12666;BME280;58531;59.050;17.416;2023-04-16T03:47:59;101902.88;;;-1.09;100.00
12666;BME280;58531;59.050;17.416;2023-04-16T03:50:26;101901.47;;;-1.06;100.00
12666;BME280;58531;59.050;17.416;2023-04-16T03:52:53;101914.56;;;-1.06;100.00
12666;BME280;58531;59.050;17.416;2023-04-16T03:55:21;101907.59;;;-1.02;100.00
12666;BME280;58531;59.050;17.416;2023-04-16T03:57:48;101912.81;;;-1.02;100.00
12666;BME280;58531;59.050;17.416;2023-04-16T04:00:15;101913.06;;;-0.95;100.00
12666;BME280;58531;59.050;17.416;2023-04-16T04:02:42;101908.56;;;-0.95;100.00
12666;BME280;58531;59.050;17.416;2023-04-16T04:05:09;101918.31;;;-0.95;100.00
12666;BME280;58531;59.050;17.416;2023-04-16T04:07:36;101913.38;;;-0.85;100.00
12666;BME280;58531;59.050;17.416;2023-04-16T04:10:03;101920.16;;;-0.84;100.00
12666;BME280;58531;59.050;17.416;2023-04-16T04:12:32;101907.81;;;-0.71;100.00
12666;BME280;58531;59.050;17.416;2023-04-16T04:14:59;101918.50;;;-0.16;100.00
12666;BME280;58531;59.050;17.416;2023-04-16T04:17:26;101922.09;;;0.30;99.97
12666;BME280;58531;59.050;17.416;2023-04-16T04:19:53;101913.13;;;0.59;97.52
12666;BME280;58531;59.050;17.416;2023-04-16T04:22:20;101926.13;;;0.67;95.51
12666;BME280;58531;59.050;17.416;2023-04-16T04:24:47;101915.94;;;0.66;95.13
12666;BME280;58531;59.050;17.416;2023-04-16T04:27:13;101915.63;;;0.67;95.20
12666;BME280;58531;59.050;17.416;2023-04-16T04:29:42;101918.34;;;0.71;94.89
12666;BME280;58531;59.050;17.416;2023-04-16T04:32:09;101918.91;;;0.64;94.96
12666;BME280;58531;59.050;17.416;2023-04-16T04:34:36;101918.19;;;0.52;95.74
12666;BME280;58531;59.050;17.416;2023-04-16T04:37:02;101918.69;;;0.69;95.05
12666;BME280;58531;59.050;17.416;2023-04-16T04:39:29;101917.00;;;0.77;94.08
12666;BME280;58531;59.050;17.416;2023-04-16T04:41:56;101916.09;;;1.00;93.37
12666;BME280;58531;59.050;17.416;2023-04-16T04:44:23;101909.16;;;1.23;91.54
12666;BME280;58531;59.050;17.416;2023-04-16T04:46:52;101901.13;;;1.35;90.58
12666;BME280;58531;59.050;17.416;2023-04-16T04:49:18;101900.97;;;1.43;90.42
12666;BME280;58531;59.050;17.416;2023-04-16T04:51:45;101900.31;;;1.65;88.69
12666;BME280;58531;59.050;17.416;2023-04-16T04:54:13;101900.84;;;1.71;87.83
12666;BME280;58531;59.050;17.416;2023-04-16T04:56:40;101903.78;;;2.04;86.46
12666;BME280;58531;59.050;17.416;2023-04-16T04:59:10;101913.59;;;2.41;84.23
12666;BME280;58531;59.050;17.416;2023-04-16T05:01:37;101906.63;;;2.93;82.23
12666;BME280;58531;59.050;17.416;2023-04-16T05:04:05;101909.22;;;3.38;78.15
12666;BME280;58531;59.050;17.416;2023-04-16T05:06:32;101914.69;;;4.04;74.89
12666;BME280;58531;59.050;17.416;2023-04-16T05:08:59;101917.06;;;4.45;72.17
12666;BME280;58531;59.050;17.416;2023-04-16T05:11:26;101921.75;;;5.45;69.06
12666;BME280;58531;59.050;17.416;2023-04-16T05:13:53;101917.13;;;5.85;64.80
12666;BME280;58531;59.050;17.416;2023-04-16T05:16:20;101914.34;;;6.46;62.75
12666;BME280;58531;59.050;17.416;2023-04-16T05:18:46;101921.22;;;6.58;61.99
12666;BME280;58531;59.050;17.416;2023-04-16T05:21:16;101927.34;;;7.42;58.12
12666;BME280;58531;59.050;17.416;2023-04-16T05:23:43;101919.78;;;7.19;58.14
12666;BME280;58531;59.050;17.416;2023-04-16T05:26:09;101917.47;;;7.53;57.54
12666;BME280;58531;59.050;17.416;2023-04-16T05:28:36;101918.81;;;8.13;55.42
12666;BME280;58531;59.050;17.416;2023-04-16T05:31:03;101908.88;;;8.38;53.48
12666;BME280;58531;59.050;17.416;2023-04-16T05:33:30;101919.06;;;8.53;53.75
12666;BME280;58531;59.050;17.416;2023-04-16T05:35:57;101913.66;;;7.50;55.20
12666;BME280;58531;59.050;17.416;2023-04-16T05:38:25;101923.13;;;8.72;53.50
12666;BME280;58531;59.050;17.416;2023-04-16T05:40:52;101922.31;;;9.69;49.85
12666;BME280;58531;59.050;17.416;2023-04-16T05:43:19;101922.97;;;9.80;49.26
12666;BME280;58531;59.050;17.416;2023-04-16T05:45:46;101925.56;;;9.87;48.53
12666;BME280;58531;59.050;17.416;2023-04-16T05:48:13;101925.94;;;9.89;48.54
12666;BME280;58531;59.050;17.416;2023-04-16T05:50:39;101927.34;;;10.01;47.94
12666;BME280;58531;59.050;17.416;2023-04-16T05:53:07;101934.03;;;10.16;47.53
12666;BME280;58531;59.050;17.416;2023-04-16T05:55:36;101927.84;;;10.78;45.35
12666;BME280;58531;59.050;17.416;2023-04-16T05:58:03;101923.59;;;12.15;42.93
12666;BME280;58531;59.050;17.416;2023-04-16T06:00:30;101922.59;;;10.98;44.36
12666;BME280;58531;59.050;17.416;2023-04-16T06:02:58;101924.38;;;9.92;45.08
12666;BME280;58531;59.050;17.416;2023-04-16T06:05:25;101928.56;;;9.56;46.32
12666;BME280;58531;59.050;17.416;2023-04-16T06:07:52;101922.38;;;9.66;45.96
12666;BME280;58531;59.050;17.416;2023-04-16T06:10:20;101922.81;;;10.28;45.62
12666;BME280;58531;59.050;17.416;2023-04-16T06:12:48;101920.06;;;10.35;44.45
12666;BME280;58531;59.050;17.416;2023-04-16T06:15:15;101930.47;;;9.92;44.60
12666;BME280;58531;59.050;17.416;2023-04-16T06:17:42;101933.31;;;9.75;45.64
12666;BME280;58531;59.050;17.416;2023-04-16T06:20:10;101933.66;;;9.80;45.87
12666;BME280;58531;59.050;17.416;2023-04-16T06:22:37;101929.25;;;11.78;42.51
12666;BME280;58531;59.050;17.416;2023-04-16T06:25:05;101928.53;;;11.77;40.48
12666;BME280;58531;59.050;17.416;2023-04-16T06:27:32;101925.53;;;11.30;41.74
12666;BME280;58531;59.050;17.416;2023-04-16T06:30:00;101936.28;;;12.11;41.00
12666;BME280;58531;59.050;17.416;2023-04-16T06:32:27;101939.63;;;12.34;39.67
12666;BME280;58531;59.050;17.416;2023-04-16T06:34:54;101942.22;;;11.14;40.64
12666;BME280;58531;59.050;17.416;2023-04-16T06:37:23;101938.44;;;11.35;41.16
12666;BME280;58531;59.050;17.416;2023-04-16T06:39:50;101946.00;;;11.40;40.04
12666;BME280;58531;59.050;17.416;2023-04-16T06:42:16;101942.84;;;11.45;40.11
12666;BME280;58531;59.050;17.416;2023-04-16T06:44:43;101952.22;;;10.84;41.00
12666;BME280;58531;59.050;17.416;2023-04-16T06:47:11;101933.47;;;10.31;41.75
12666;BME280;58531;59.050;17.416;2023-04-16T06:49:38;101938.94;;;10.77;40.71
12666;BME280;58531;59.050;17.416;2023-04-16T06:52:05;101940.09;;;10.76;41.20
12666;BME280;58531;59.050;17.416;2023-04-16T06:54:33;101941.91;;;11.55;39.10
12666;BME280;58531;59.050;17.416;2023-04-16T06:56:59;101946.22;;;11.72;39.68
12666;BME280;58531;59.050;17.416;2023-04-16T06:59:26;101941.34;;;12.05;38.76
12666;BME280;58531;59.050;17.416;2023-04-16T07:01:53;101944.00;;;11.67;38.25
12666;BME280;58531;59.050;17.416;2023-04-16T07:04:22;101948.38;;;11.11;40.03
12666;BME280;58531;59.050;17.416;2023-04-16T07:06:49;101949.09;;;10.62;41.08
12666;BME280;58531;59.050;17.416;2023-04-16T07:09:16;101955.41;;;10.16;42.11
12666;BME280;58531;59.050;17.416;2023-04-16T07:11:43;101939.56;;;10.61;41.32
12666;BME280;58531;59.050;17.416;2023-04-16T07:14:10;101941.53;;;11.07;40.31
12666;BME280;58531;59.050;17.416;2023-04-16T07:16:37;101947.13;;;11.16;39.46
12666;BME280;58531;59.050;17.416;2023-04-16T07:19:05;101948.75;;;11.10;39.87
12666;BME280;58531;59.050;17.416;2023-04-16T07:21:33;101946.31;;;11.87;38.92
12666;BME280;58531;59.050;17.416;2023-04-16T07:24:00;101937.91;;;11.66;38.25
12666;BME280;58531;59.050;17.416;2023-04-16T07:26:27;101945.00;;;12.34;37.49
12666;BME280;58531;59.050;17.416;2023-04-16T07:28:53;101943.44;;;12.53;37.29
12666;BME280;58531;59.050;17.416;2023-04-16T07:31:20;101946.44;;;12.90;36.13
12666;BME280;58531;59.050;17.416;2023-04-16T07:33:47;101950.06;;;12.48;35.42
12666;BME280;58531;59.050;17.416;2023-04-16T07:36:14;101944.50;;;12.00;36.54
12666;BME280;58531;59.050;17.416;2023-04-16T07:38:42;101941.34;;;12.96;36.04
12666;BME280;58531;59.050;17.416;2023-04-16T07:41:09;101946.19;;;13.48;34.54
12666;BME280;58531;59.050;17.416;2023-04-16T07:43:36;101952.03;;;12.99;35.90
12666;BME280;58531;59.050;17.416;2023-04-16T07:46:03;101949.53;;;11.98;36.64
12666;BME280;58531;59.050;17.416;2023-04-16T07:48:30;101939.91;;;10.00;40.60
12666;BME280;58531;59.050;17.416;2023-04-16T07:50:57;101948.03;;;9.02;43.09
12666;BME280;58531;59.050;17.416;2023-04-16T07:53:24;101949.69;;;8.86;44.52
12666;BME280;58531;59.050;17.416;2023-04-16T07:55:52;101935.50;;;8.34;45.33
12666;BME280;58531;59.050;17.416;2023-04-16T07:58:19;101949.22;;;8.26;45.48
12666;BME280;58531;59.050;17.416;2023-04-16T08:00:46;101940.91;;;8.03;45.71
12666;BME280;58531;59.050;17.416;2023-04-16T08:03:13;101926.53;;;7.83;47.17
12666;BME280;58531;59.050;17.416;2023-04-16T08:05:40;101935.56;;;8.14;47.24
12666;BME280;58531;59.050;17.416;2023-04-16T08:08:07;101938.97;;;8.21;47.34
12666;BME280;58531;59.050;17.416;2023-04-16T08:10:34;101938.94;;;8.24;46.79
12666;BME280;58531;59.050;17.416;2023-04-16T08:13:02;101935.88;;;8.33;45.97
12666;BME280;58531;59.050;17.416;2023-04-16T08:15:29;101939.31;;;8.30;46.60
12666;BME280;58531;59.050;17.416;2023-04-16T08:17:56;101939.31;;;8.30;46.62
12666;BME280;58531;59.050;17.416;2023-04-16T08:20:24;101937.81;;;8.15;46.01
12666;BME280;58531;59.050;17.416;2023-04-16T08:22:52;101945.03;;;8.25;46.33
12666;BME280;58531;59.050;17.416;2023-04-16T08:25:19;101945.56;;;8.71;45.16
12666;BME280;58531;59.050;17.416;2023-04-16T08:27:48;101946.66;;;8.84;45.10
12666;BME280;58531;59.050;17.416;2023-04-16T08:30:16;101947.88;;;8.69;44.90
12666;BME280;58531;59.050;17.416;2023-04-16T08:32:43;101945.22;;;8.69;44.84
12666;BME280;58531;59.050;17.416;2023-04-16T08:35:10;101941.84;;;8.58;45.58
12666;BME280;58531;59.050;17.416;2023-04-16T08:37:37;101947.84;;;8.76;45.98
12666;BME280;58531;59.050;17.416;2023-04-16T08:40:05;101950.72;;;8.99;45.78
12666;BME280;58531;59.050;17.416;2023-04-16T08:42:33;101950.16;;;9.21;45.22
12666;BME280;58531;59.050;17.416;2023-04-16T08:45:06;101947.88;;;9.27;44.96
12666;BME280;58531;59.050;17.416;2023-04-16T08:47:35;101942.94;;;9.22;45.40
12666;BME280;58531;59.050;17.416;2023-04-16T08:50:03;101945.56;;;9.29;44.62
12666;BME280;58531;59.050;17.416;2023-04-16T08:52:30;101950.84;;;9.32;45.54
12666;BME280;58531;59.050;17.416;2023-04-16T08:55:03;101952.41;;;9.30;43.32
12666;BME280;58531;59.050;17.416;2023-04-16T08:57:37;101956.81;;;9.46;43.78
12666;BME280;58531;59.050;17.416;2023-04-16T09:00:07;101961.19;;;9.27;43.37
12666;BME280;58531;59.050;17.416;2023-04-16T09:02:36;101949.09;;;9.12;43.54
12666;BME280;58531;59.050;17.416;2023-04-16T09:05:05;101950.09;;;9.32;44.42
12666;BME280;58531;59.050;17.416;2023-04-16T09:07:33;101952.19;;;9.54;44.37
12666;BME280;58531;59.050;17.416;2023-04-16T09:10:00;101959.09;;;9.48;43.34
12666;BME280;58531;59.050;17.416;2023-04-16T09:12:27;101952.22;;;9.50;43.24
12666;BME280;58531;59.050;17.416;2023-04-16T09:14:55;101960.75;;;9.75;44.47
12666;BME280;58531;59.050;17.416;2023-04-16T09:17:24;101955.44;;;10.12;42.19
12666;BME280;58531;59.050;17.416;2023-04-16T09:19:53;101955.47;;;9.68;42.28
12666;BME280;58531;59.050;17.416;2023-04-16T09:22:20;101952.88;;;9.65;42.58
12666;BME280;58531;59.050;17.416;2023-04-16T09:24:47;101958.75;;;9.86;41.61
12666;BME280;58531;59.050;17.416;2023-04-16T09:27:14;101962.69;;;9.71;41.56
12666;BME280;58531;59.050;17.416;2023-04-16T09:29:41;101950.41;;;9.81;41.71
12666;BME280;58531;59.050;17.416;2023-04-16T09:32:08;101954.22;;;9.80;42.56
12666;BME280;58531;59.050;17.416;2023-04-16T09:34:55;101956.34;;;9.95;41.79
12666;BME280;58531;59.050;17.416;2023-04-16T09:37:23;101967.66;;;10.10;42.26
12666;BME280;58531;59.050;17.416;2023-04-16T09:39:55;101963.84;;;10.44;41.25
12666;BME280;58531;59.050;17.416;2023-04-16T09:42:26;101955.25;;;10.56;40.69
12666;BME280;58531;59.050;17.416;2023-04-16T09:44:54;101966.22;;;10.65;40.80
12666;BME280;58531;59.050;17.416;2023-04-16T09:47:21;101961.50;;;10.46;39.92
12666;BME280;58531;59.050;17.416;2023-04-16T09:49:49;101964.31;;;10.36;40.84
12666;BME280;58531;59.050;17.416;2023-04-16T09:52:20;101969.03;;;10.55;42.01
12666;BME280;58531;59.050;17.416;2023-04-16T09:54:48;101967.03;;;10.32;40.74
12666;BME280;58531;59.050;17.416;2023-04-16T09:57:19;101970.50;;;10.29;41.04
12666;BME280;58531;59.050;17.416;2023-04-16T09:59:52;101966.88;;;10.13;41.75
12666;BME280;58531;59.050;17.416;2023-04-16T10:02:19;101967.09;;;10.25;41.47
12666;BME280;58531;59.050;17.416;2023-04-16T10:04:48;101967.31;;;10.41;41.36
12666;BME280;58531;59.050;17.416;2023-04-16T10:07:16;101957.38;;;10.42;40.35
12666;BME280;58531;59.050;17.416;2023-04-16T10:09:44;101961.91;;;10.45;41.36
12666;BME280;58531;59.050;17.416;2023-04-16T10:12:13;101964.63;;;10.08;41.90
12666;BME280;58531;59.050;17.416;2023-04-16T10:14:41;101962.25;;;10.17;43.28
12666;BME280;58531;59.050;17.416;2023-04-16T10:17:08;101947.19;;;10.30;41.92
12666;BME280;58531;59.050;17.416;2023-04-16T10:19:35;101951.16;;;10.48;41.33
12666;BME280;58531;59.050;17.416;2023-04-16T10:22:03;101956.91;;;10.47;41.67
12666;BME280;58531;59.050;17.416;2023-04-16T10:24:32;101964.84;;;10.54;42.62
12666;BME280;58531;59.050;17.416;2023-04-16T10:27:00;101959.66;;;10.43;40.91
12666;BME280;58531;59.050;17.416;2023-04-16T10:29:28;101960.59;;;10.26;42.08
12666;BME280;58531;59.050;17.416;2023-04-16T10:31:56;101959.81;;;10.29;40.80
12666;BME280;58531;59.050;17.416;2023-04-16T10:34:24;101964.50;;;10.18;42.47
12666;BME280;58531;59.050;17.416;2023-04-16T10:36:52;101973.59;;;10.24;41.05
12666;BME280;58531;59.050;17.416;2023-04-16T10:39:20;101968.28;;;10.21;41.66
12666;BME280;58531;59.050;17.416;2023-04-16T10:41:49;101962.03;;;10.34;41.49
12666;BME280;58531;59.050;17.416;2023-04-16T10:44:17;101966.38;;;10.51;41.66
12666;BME280;58531;59.050;17.416;2023-04-16T10:46:46;101960.81;;;10.42;41.34
12666;BME280;58531;59.050;17.416;2023-04-16T10:49:16;101958.72;;;10.53;42.14
12666;BME280;58531;59.050;17.416;2023-04-16T10:51:52;101962.91;;;10.54;40.58
12666;BME280;58531;59.050;17.416;2023-04-16T10:54:22;101964.34;;;10.62;40.76
12666;BME280;58531;59.050;17.416;2023-04-16T10:56:52;101960.66;;;10.53;39.81
12666;BME280;58531;59.050;17.416;2023-04-16T10:59:21;101963.34;;;10.49;40.00
12666;BME280;58531;59.050;17.416;2023-04-16T11:01:50;101965.19;;;10.56;39.79
12666;BME280;58531;59.050;17.416;2023-04-16T11:04:29;101963.03;;;10.73;40.24
12666;BME280;58531;59.050;17.416;2023-04-16T11:07:10;101960.50;;;10.63;39.48
12666;BME280;58531;59.050;17.416;2023-04-16T11:10:02;101956.03;;;10.83;39.94
12666;BME280;58531;59.050;17.416;2023-04-16T11:12:34;101964.25;;;10.95;40.14
12666;BME280;58531;59.050;17.416;2023-04-16T11:15:03;101957.03;;;10.92;38.91
12666;BME280;58531;59.050;17.416;2023-04-16T11:17:32;101959.06;;;10.85;39.86
12666;BME280;58531;59.050;17.416;2023-04-16T11:19:59;101964.97;;;10.99;39.25
12666;BME280;58531;59.050;17.416;2023-04-16T11:22:26;101953.31;;;10.86;39.33
12666;BME280;58531;59.050;17.416;2023-04-16T11:24:54;101960.53;;;10.89;39.83
12666;BME280;58531;59.050;17.416;2023-04-16T11:27:22;101954.44;;;11.12;39.58
12666;BME280;58531;59.050;17.416;2023-04-16T11:29:58;101953.53;;;11.22;39.06
12666;BME280;58531;59.050;17.416;2023-04-16T11:32:25;101959.72;;;11.42;39.53
12666;BME280;58531;59.050;17.416;2023-04-16T11:34:52;101964.22;;;11.22;38.89
12666;BME280;58531;59.050;17.416;2023-04-16T11:37:20;101949.13;;;10.85;38.60
12666;BME280;58531;59.050;17.416;2023-04-16T11:39:51;101955.25;;;10.86;39.69
12666;BME280;58531;59.050;17.416;2023-04-16T11:42:19;101953.00;;;11.07;39.58
12666;BME280;58531;59.050;17.416;2023-04-16T11:44:50;101958.19;;;11.18;39.28
12666;BME280;58531;59.050;17.416;2023-04-16T11:47:19;101952.72;;;11.25;39.22
12666;BME280;58531;59.050;17.416;2023-04-16T11:49:46;101959.25;;;11.47;38.10
12666;BME280;58531;59.050;17.416;2023-04-16T11:52:14;101947.03;;;11.46;38.13
12666;BME280;58531;59.050;17.416;2023-04-16T11:54:51;101951.28;;;11.43;38.72
12666;BME280;58531;59.050;17.416;2023-04-16T11:57:23;101951.28;;;11.43;38.50
12666;BME280;58531;59.050;17.416;2023-04-16T11:59:50;101950.72;;;11.52;39.11
12666;BME280;58531;59.050;17.416;2023-04-16T12:02:18;101948.66;;;11.63;37.96
12666;BME280;58531;59.050;17.416;2023-04-16T12:04:59;101950.88;;;11.68;37.91
12666;BME280;58531;59.050;17.416;2023-04-16T12:07:26;101952.38;;;11.69;37.25
12666;BME280;58531;59.050;17.416;2023-04-16T12:10:04;101955.59;;;11.60;37.27
12666;BME280;58531;59.050;17.416;2023-04-16T12:12:31;101937.84;;;11.70;37.50
12666;BME280;58531;59.050;17.416;2023-04-16T12:15:00;101943.31;;;11.63;37.12
12666;BME280;58531;59.050;17.416;2023-04-16T12:17:31;101945.06;;;11.73;37.16
12666;BME280;58531;59.050;17.416;2023-04-16T12:19:59;101940.59;;;11.66;36.70
12666;BME280;58531;59.050;17.416;2023-04-16T12:22:28;101933.41;;;11.82;36.00
12666;BME280;58531;59.050;17.416;2023-04-16T12:24:57;101935.25;;;11.85;35.61
12666;BME280;58531;59.050;17.416;2023-04-16T12:27:25;101936.47;;;12.00;36.48
12666;BME280;58531;59.050;17.416;2023-04-16T12:30:03;101933.06;;;12.19;35.73
12666;BME280;58531;59.050;17.416;2023-04-16T12:32:32;101932.22;;;12.22;33.82
12666;BME280;58531;59.050;17.416;2023-04-16T12:34:59;101932.97;;;12.03;33.69
12666;BME280;58531;59.050;17.416;2023-04-16T12:37:26;101930.47;;;11.96;34.09
12666;BME280;58531;59.050;17.416;2023-04-16T12:39:53;101933.31;;;12.05;33.66
12666;BME280;58531;59.050;17.416;2023-04-16T12:42:20;101933.97;;;12.13;33.75
12666;BME280;58531;59.050;17.416;2023-04-16T12:44:47;101932.38;;;12.15;33.27
12666;BME280;58531;59.050;17.416;2023-04-16T12:47:14;101924.13;;;12.06;33.48